Погода Сан-Андрес-Истланна 2 недели

Халиско, Мексика

03 - 16 марта
  • 03марта
    Сегодня
    +10°
    +30°
    Ясно и безоблачно
    ВремяПогодаТемператураВлажностьДавлениеВетер, м/сВероятность осадков
    00:00Облачно с прояснениями+15°C76 %637 мм0.4 м/с2 %
    03:00Небольшая облачность+14°C82 %636 мм0.3 м/с2 %
    06:00Облачно с прояснениями+12°C82 %635 мм0.0 м/с2 %
    09:00Ясно и безоблачно+16°C61 %637 мм0.0 м/с2 %
    12:00Ясно и безоблачно+26°C31 %640 мм2.8 м/с2 %
    15:00Ясно и безоблачно+29°C27 %639 мм4.1 м/с2 %
    18:00Ясно и безоблачно+26°C37 %637 мм3.6 м/с2 %
    21:00Ясно и безоблачно+18°C64 %637 мм1.3 м/с2 %
  • 04марта
    Понедельник
    +10°
    +30°
    Ясно и безоблачно
    ВремяПогодаТемператураВлажностьДавлениеВетер, м/сВероятность осадков
    00:00Ясно и безоблачно+15°C73 %636 мм0.4 м/с2 %
    03:00Ясно и безоблачно+13°C74 %635 мм0.1 м/с2 %
    06:00Ясно и безоблачно+11°C74 %634 мм0.0 м/с2 %
    09:00Ясно и безоблачно+16°C51 %636 мм0.0 м/с2 %
    12:00Ясно и безоблачно+26°C25 %639 мм2.7 м/с2 %
    15:00Ясно и безоблачно+29°C24 %637 мм4.0 м/с2 %
    18:00Ясно и безоблачно+26°C33 %636 мм3.7 м/с2 %
    21:00Ясно и безоблачно+19°C62 %636 мм1.2 м/с2 %
  • 05марта
    Вторник
    +12°
    +31°
    Облачно с прояснениями
    ВремяПогодаТемператураВлажностьДавлениеВетер, м/сВероятность осадков
    00:00Ясно и безоблачно+15°C73 %636 мм0.1 м/с2 %
    03:00Ясно и безоблачно+13°C75 %634 мм0.6 м/с2 %
    06:00Небольшая облачность+11°C72 %633 мм0.0 м/с2 %
    09:00Ясно и безоблачно+15°C51 %636 мм0.1 м/с2 %
    12:00Практически безоблачно+26°C21 %638 мм2.3 м/с2 %
    15:00Облачно с прояснениями+30°C16 %637 мм3.8 м/с2 %
    18:00Практически безоблачно+26°C32 %636 мм3.7 м/с2 %
    21:00Облачно с прояснениями+18°C67 %635 мм1.4 м/с2 %
  • 06марта
    Среда
    +11°
    +31°
    Облачно с прояснениями
    ВремяПогодаТемператураВлажностьДавлениеВетер, м/сВероятность осадков
    00:00Облачно с прояснениями+15°C71 %634 мм0.4 м/с2 %
    03:00Ясно и безоблачно+14°C67 %633 мм0.3 м/с2 %
    06:00Ясно и безоблачно+12°C66 %633 мм0.0 м/с2 %
    09:00Ясно и безоблачно+16°C45 %636 мм0.2 м/с2 %
    12:00Практически безоблачно+27°C24 %638 мм2.6 м/с2 %
    15:00Облачно с прояснениями+30°C19 %637 мм4.4 м/с2 %
    18:00Облачно с прояснениями+27°C37 %637 мм4.0 м/с2 %
    21:00Ясно и безоблачно+18°C70 %636 мм1.7 м/с2 %
Мы используем cookies
Соглашаюсь